sensor_id;sensor_type;location;lat;lon;timestamp;temperature;humidity
24049;DHT22;12250;50.956;4.746;2022-12-13T00:01:16;-5.00;99.90
24049;DHT22;12250;50.956;4.746;2022-12-13T00:03:42;-5.00;99.90
24049;DHT22;12250;50.956;4.746;2022-12-13T00:06:09;-5.10;99.90
24049;DHT22;12250;50.956;4.746;2022-12-13T00:08:35;-5.10;99.90
24049;DHT22;12250;50.956;4.746;2022-12-13T00:11:04;-5.10;99.90
24049;DHT22;12250;50.956;4.746;2022-12-13T00:13:31;-5.20;99.90
24049;DHT22;12250;50.956;4.746;2022-12-13T00:16:01;-5.10;99.90
24049;DHT22;12250;50.956;4.746;2022-12-13T00:18:28;-5.20;99.90
24049;DHT22;12250;50.956;4.746;2022-12-13T00:20:54;-5.20;99.90
24049;DHT22;12250;50.956;4.746;2022-12-13T00:23:20;-5.20;99.90
24049;DHT22;12250;50.956;4.746;2022-12-13T00:25:46;-5.10;99.90
24049;DHT22;12250;50.956;4.746;2022-12-13T00:28:12;-5.10;99.90
24049;DHT22;12250;50.956;4.746;2022-12-13T00:30:38;-5.10;99.90
24049;DHT22;12250;50.956;4.746;2022-12-13T00:33:05;-5.20;99.90
24049;DHT22;12250;50.956;4.746;2022-12-13T00:35:31;-5.20;99.90
24049;DHT22;12250;50.956;4.746;2022-12-13T00:37:57;-5.20;99.90
24049;DHT22;12250;50.956;4.746;2022-12-13T00:40:23;-5.20;99.90
24049;DHT22;12250;50.956;4.746;2022-12-13T00:42:49;-5.20;99.90
24049;DHT22;12250;50.956;4.746;2022-12-13T00:45:15;-5.20;99.90
24049;DHT22;12250;50.956;4.746;2022-12-13T00:47:40;-5.20;99.90
24049;DHT22;12250;50.956;4.746;2022-12-13T00:50:06;-5.30;99.90
24049;DHT22;12250;50.956;4.746;2022-12-13T00:52:36;-5.30;99.90
24049;DHT22;12250;50.956;4.746;2022-12-13T00:55:02;-5.30;99.90
24049;DHT22;12250;50.956;4.746;2022-12-13T00:57:28;-5.30;99.90
24049;DHT22;12250;50.956;4.746;2022-12-13T00:59:53;-5.30;99.90
24049;DHT22;12250;50.956;4.746;2022-12-13T01:02:19;-5.30;99.90
24049;DHT22;12250;50.956;4.746;2022-12-13T01:04:47;-5.30;99.90
24049;DHT22;12250;50.956;4.746;2022-12-13T01:07:13;-5.30;99.90
24049;DHT22;12250;50.956;4.746;2022-12-13T01:09:38;-5.30;99.90
24049;DHT22;12250;50.956;4.746;2022-12-13T01:12:07;-5.30;99.90
24049;DHT22;12250;50.956;4.746;2022-12-13T01:14:38;-5.30;99.90
24049;DHT22;12250;50.956;4.746;2022-12-13T01:17:05;-5.30;99.90
24049;DHT22;12250;50.956;4.746;2022-12-13T01:19:31;-5.40;99.90
24049;DHT22;12250;50.956;4.746;2022-12-13T01:22:00;-5.30;99.90
24049;DHT22;12250;50.956;4.746;2022-12-13T01:24:26;-5.30;99.90
24049;DHT22;12250;50.956;4.746;2022-12-13T01:26:52;-5.30;99.90
24049;DHT22;12250;50.956;4.746;2022-12-13T01:29:19;-5.30;99.90
24049;DHT22;12250;50.956;4.746;2022-12-13T01:31:45;-5.40;99.90
24049;DHT22;12250;50.956;4.746;2022-12-13T01:34:13;-5.40;99.90
24049;DHT22;12250;50.956;4.746;2022-12-13T01:36:40;-5.40;99.90
24049;DHT22;12250;50.956;4.746;2022-12-13T01:39:07;-5.40;99.90
24049;DHT22;12250;50.956;4.746;2022-12-13T01:41:33;-5.40;99.90
24049;DHT22;12250;50.956;4.746;2022-12-13T01:46:45;-5.50;99.90
24049;DHT22;12250;50.956;4.746;2022-12-13T01:49:14;-5.50;99.90
24049;DHT22;12250;50.956;4.746;2022-12-13T01:51:43;-5.50;99.90
24049;DHT22;12250;50.956;4.746;2022-12-13T01:54:13;-5.50;99.90
24049;DHT22;12250;50.956;4.746;2022-12-13T01:56:46;-5.50;99.90
24049;DHT22;12250;50.956;4.746;2022-12-13T01:59:14;-5.50;99.90
24049;DHT22;12250;50.956;4.746;2022-12-13T02:01:41;-5.60;99.90
24049;DHT22;12250;50.956;4.746;2022-12-13T02:04:07;-5.60;99.90
24049;DHT22;12250;50.956;4.746;2022-12-13T02:06:39;-5.60;99.90
24049;DHT22;12250;50.956;4.746;2022-12-13T02:09:06;-5.50;99.90
24049;DHT22;12250;50.956;4.746;2022-12-13T02:11:41;-5.50;99.90
24049;DHT22;12250;50.956;4.746;2022-12-13T02:14:07;-5.50;99.90
24049;DHT22;12250;50.956;4.746;2022-12-13T02:17:03;-5.50;99.90
24049;DHT22;12250;50.956;4.746;2022-12-13T02:24:47;-5.60;99.90
24049;DHT22;12250;50.956;4.746;2022-12-13T02:35:40;-5.70;99.90
24049;DHT22;12250;50.956;4.746;2022-12-13T02:41:46;-5.80;99.90
24049;DHT22;12250;50.956;4.746;2022-12-13T02:44:24;-5.90;99.90
24049;DHT22;12250;50.956;4.746;2022-12-13T02:47:05;-5.90;99.90
24049;DHT22;12250;50.956;4.746;2022-12-13T02:49:35;-5.90;99.90
24049;DHT22;12250;50.956;4.746;2022-12-13T02:52:04;-5.90;99.90
24049;DHT22;12250;50.956;4.746;2022-12-13T02:54:32;-5.90;99.90
24049;DHT22;12250;50.956;4.746;2022-12-13T02:56:59;-5.80;99.90
24049;DHT22;12250;50.956;4.746;2022-12-13T02:59:33;-5.90;99.90
24049;DHT22;12250;50.956;4.746;2022-12-13T03:02:16;-5.90;99.90
24049;DHT22;12250;50.956;4.746;2022-12-13T03:07:48;-6.00;99.90
24049;DHT22;12250;50.956;4.746;2022-12-13T03:10:21;-6.10;99.90
24049;DHT22;12250;50.956;4.746;2022-12-13T03:13:02;-6.10;99.90
24049;DHT22;12250;50.956;4.746;2022-12-13T03:18:18;-6.10;99.90
24049;DHT22;12250;50.956;4.746;2022-12-13T03:23:15;-6.10;99.90
24049;DHT22;12250;50.956;4.746;2022-12-13T03:25:42;-6.10;99.90
24049;DHT22;12250;50.956;4.746;2022-12-13T03:28:08;-6.10;99.90
24049;DHT22;12250;50.956;4.746;2022-12-13T03:30:34;-6.10;99.90
24049;DHT22;12250;50.956;4.746;2022-12-13T03:33:00;-6.10;99.90
24049;DHT22;12250;50.956;4.746;2022-12-13T03:35:27;-6.10;99.90
24049;DHT22;12250;50.956;4.746;2022-12-13T03:37:53;-6.10;99.90
24049;DHT22;12250;50.956;4.746;2022-12-13T03:40:19;-6.10;99.90
24049;DHT22;12250;50.956;4.746;2022-12-13T03:42:45;-6.10;99.90
24049;DHT22;12250;50.956;4.746;2022-12-13T03:45:11;-6.10;99.90
24049;DHT22;12250;50.956;4.746;2022-12-13T03:47:37;-6.10;99.90
24049;DHT22;12250;50.956;4.746;2022-12-13T03:50:03;-6.00;99.90
24049;DHT22;12250;50.956;4.746;2022-12-13T03:52:28;-5.90;99.90
24049;DHT22;12250;50.956;4.746;2022-12-13T03:54:54;-6.00;99.90
24049;DHT22;12250;50.956;4.746;2022-12-13T03:57:20;-5.90;99.90
24049;DHT22;12250;50.956;4.746;2022-12-13T03:59:45;-5.90;99.90
24049;DHT22;12250;50.956;4.746;2022-12-13T04:02:11;-5.90;99.90
24049;DHT22;12250;50.956;4.746;2022-12-13T04:04:37;-6.00;99.90
24049;DHT22;12250;50.956;4.746;2022-12-13T04:07:02;-6.00;99.90
24049;DHT22;12250;50.956;4.746;2022-12-13T04:09:28;-6.00;99.90
24049;DHT22;12250;50.956;4.746;2022-12-13T04:11:53;-6.00;99.90
24049;DHT22;12250;50.956;4.746;2022-12-13T04:14:42;-5.90;99.90
24049;DHT22;12250;50.956;4.746;2022-12-13T04:17:08;-5.90;99.90
24049;DHT22;12250;50.956;4.746;2022-12-13T04:19:33;-5.90;99.90
24049;DHT22;12250;50.956;4.746;2022-12-13T04:21:59;-5.90;99.90
24049;DHT22;12250;50.956;4.746;2022-12-13T04:24:24;-5.90;99.90
24049;DHT22;12250;50.956;4.746;2022-12-13T04:26:50;-5.90;99.90
24049;DHT22;12250;50.956;4.746;2022-12-13T04:29:16;-5.90;99.90
24049;DHT22;12250;50.956;4.746;2022-12-13T04:31:41;-5.90;99.90
24049;DHT22;12250;50.956;4.746;2022-12-13T04:34:07;-5.90;99.90
24049;DHT22;12250;50.956;4.746;2022-12-13T04:36:33;-5.80;99.90
24049;DHT22;12250;50.956;4.746;2022-12-13T04:39:03;-5.80;99.90
24049;DHT22;12250;50.956;4.746;2022-12-13T04:41:34;-5.80;99.90
24049;DHT22;12250;50.956;4.746;2022-12-13T04:44:01;-5.80;99.90
24049;DHT22;12250;50.956;4.746;2022-12-13T04:46:27;-5.80;99.90
24049;DHT22;12250;50.956;4.746;2022-12-13T04:48:53;-5.80;99.90
24049;DHT22;12250;50.956;4.746;2022-12-13T04:51:19;-5.80;99.90
24049;DHT22;12250;50.956;4.746;2022-12-13T04:53:44;-5.90;99.90
24049;DHT22;12250;50.956;4.746;2022-12-13T04:56:10;-5.90;99.90
24049;DHT22;12250;50.956;4.746;2022-12-13T04:58:36;-6.00;99.90
24049;DHT22;12250;50.956;4.746;2022-12-13T05:01:04;-6.00;99.90
24049;DHT22;12250;50.956;4.746;2022-12-13T05:03:30;-6.00;99.90
24049;DHT22;12250;50.956;4.746;2022-12-13T05:05:55;-6.00;99.90
24049;DHT22;12250;50.956;4.746;2022-12-13T05:08:21;-6.00;99.90
24049;DHT22;12250;50.956;4.746;2022-12-13T05:10:47;-6.00;99.90
24049;DHT22;12250;50.956;4.746;2022-12-13T05:13:12;-5.90;99.90
24049;DHT22;12250;50.956;4.746;2022-12-13T05:15:38;-6.00;99.90
24049;DHT22;12250;50.956;4.746;2022-12-13T05:18:05;-6.00;99.90
24049;DHT22;12250;50.956;4.746;2022-12-13T05:20:33;-5.90;99.90
24049;DHT22;12250;50.956;4.746;2022-12-13T05:22:58;-6.00;99.90
24049;DHT22;12250;50.956;4.746;2022-12-13T05:25:24;-6.00;99.90
24049;DHT22;12250;50.956;4.746;2022-12-13T05:27:50;-6.00;99.90
24049;DHT22;12250;50.956;4.746;2022-12-13T05:30:17;-6.10;99.90
24049;DHT22;12250;50.956;4.746;2022-12-13T05:32:43;-6.10;99.90
24049;DHT22;12250;50.956;4.746;2022-12-13T05:35:08;-6.10;99.90
24049;DHT22;12250;50.956;4.746;2022-12-13T05:37:34;-6.10;99.90
24049;DHT22;12250;50.956;4.746;2022-12-13T05:40:00;-6.20;99.90
24049;DHT22;12250;50.956;4.746;2022-12-13T05:42:26;-6.20;99.90
24049;DHT22;12250;50.956;4.746;2022-12-13T05:44:52;-6.20;99.90
24049;DHT22;12250;50.956;4.746;2022-12-13T05:47:18;-6.30;99.90
24049;DHT22;12250;50.956;4.746;2022-12-13T05:49:43;-6.20;99.90
24049;DHT22;12250;50.956;4.746;2022-12-13T05:52:20;-6.20;99.90
24049;DHT22;12250;50.956;4.746;2022-12-13T05:54:46;-6.20;99.90
24049;DHT22;12250;50.956;4.746;2022-12-13T05:57:11;-6.20;99.90
24049;DHT22;12250;50.956;4.746;2022-12-13T05:59:37;-6.20;99.90
24049;DHT22;12250;50.956;4.746;2022-12-13T06:02:03;-6.20;99.90
24049;DHT22;12250;50.956;4.746;2022-12-13T06:04:28;-6.30;99.90
24049;DHT22;12250;50.956;4.746;2022-12-13T06:06:54;-6.30;99.90
24049;DHT22;12250;50.956;4.746;2022-12-13T06:09:20;-6.40;99.90
24049;DHT22;12250;50.956;4.746;2022-12-13T06:11:47;-6.40;99.90
24049;DHT22;12250;50.956;4.746;2022-12-13T06:14:13;-6.40;99.90
24049;DHT22;12250;50.956;4.746;2022-12-13T06:16:38;-6.40;99.90
24049;DHT22;12250;50.956;4.746;2022-12-13T06:19:04;-6.40;99.90
24049;DHT22;12250;50.956;4.746;2022-12-13T06:21:33;-6.50;99.90
24049;DHT22;12250;50.956;4.746;2022-12-13T06:23:59;-6.50;99.90
24049;DHT22;12250;50.956;4.746;2022-12-13T06:26:25;-6.40;99.90
24049;DHT22;12250;50.956;4.746;2022-12-13T06:28:51;-6.40;99.90
24049;DHT22;12250;50.956;4.746;2022-12-13T06:31:16;-6.40;99.90
24049;DHT22;12250;50.956;4.746;2022-12-13T06:33:42;-6.30;99.90
24049;DHT22;12250;50.956;4.746;2022-12-13T06:36:08;-6.30;99.90
24049;DHT22;12250;50.956;4.746;2022-12-13T06:38:34;-6.20;99.90
24049;DHT22;12250;50.956;4.746;2022-12-13T06:41:11;-6.30;99.90
24049;DHT22;12250;50.956;4.746;2022-12-13T06:43:40;-6.30;99.90
24049;DHT22;12250;50.956;4.746;2022-12-13T06:46:05;-6.30;99.90
24049;DHT22;12250;50.956;4.746;2022-12-13T06:48:31;-6.30;99.90
24049;DHT22;12250;50.956;4.746;2022-12-13T06:51:04;-6.30;99.90
24049;DHT22;12250;50.956;4.746;2022-12-13T06:53:30;-6.40;99.90
24049;DHT22;12250;50.956;4.746;2022-12-13T06:55:56;-6.40;99.90
24049;DHT22;12250;50.956;4.746;2022-12-13T06:58:22;-6.40;99.90
24049;DHT22;12250;50.956;4.746;2022-12-13T07:00:48;-6.40;99.90
24049;DHT22;12250;50.956;4.746;2022-12-13T07:03:14;-6.50;99.90
24049;DHT22;12250;50.956;4.746;2022-12-13T07:05:40;-6.50;99.90
24049;DHT22;12250;50.956;4.746;2022-12-13T07:08:05;-6.50;99.90
24049;DHT22;12250;50.956;4.746;2022-12-13T07:10:32;-6.60;99.90
24049;DHT22;12250;50.956;4.746;2022-12-13T07:12:57;-6.60;99.90
24049;DHT22;12250;50.956;4.746;2022-12-13T07:15:23;-6.60;99.90
24049;DHT22;12250;50.956;4.746;2022-12-13T07:17:50;-6.60;99.90
24049;DHT22;12250;50.956;4.746;2022-12-13T07:20:17;-6.70;99.90
24049;DHT22;12250;50.956;4.746;2022-12-13T07:22:43;-6.70;99.90
24049;DHT22;12250;50.956;4.746;2022-12-13T07:25:09;-6.70;99.90
24049;DHT22;12250;50.956;4.746;2022-12-13T07:27:35;-6.70;99.90
24049;DHT22;12250;50.956;4.746;2022-12-13T07:30:01;-6.70;99.90
24049;DHT22;12250;50.956;4.746;2022-12-13T07:32:26;-6.70;99.90
24049;DHT22;12250;50.956;4.746;2022-12-13T07:34:52;-6.70;99.90
24049;DHT22;12250;50.956;4.746;2022-12-13T07:37:18;-6.70;99.90
24049;DHT22;12250;50.956;4.746;2022-12-13T07:39:44;-6.70;99.90
24049;DHT22;12250;50.956;4.746;2022-12-13T07:42:10;-6.70;99.90
24049;DHT22;12250;50.956;4.746;2022-12-13T07:44:37;-6.60;99.90
24049;DHT22;12250;50.956;4.746;2022-12-13T07:47:03;-6.70;99.90
24049;DHT22;12250;50.956;4.746;2022-12-13T07:49:29;-6.60;99.90
24049;DHT22;12250;50.956;4.746;2022-12-13T07:51:54;-6.60;99.90
24049;DHT22;12250;50.956;4.746;2022-12-13T07:54:21;-6.60;99.90
24049;DHT22;12250;50.956;4.746;2022-12-13T07:56:46;-6.60;99.90
24049;DHT22;12250;50.956;4.746;2022-12-13T07:59:12;-6.50;99.90
24049;DHT22;12250;50.956;4.746;2022-12-13T08:01:38;-6.50;99.90
24049;DHT22;12250;50.956;4.746;2022-12-13T08:04:04;-6.40;99.90
24049;DHT22;12250;50.956;4.746;2022-12-13T08:06:33;-6.30;99.90
24049;DHT22;12250;50.956;4.746;2022-12-13T08:09:00;-6.30;99.90
24049;DHT22;12250;50.956;4.746;2022-12-13T08:11:25;-6.20;99.90
24049;DHT22;12250;50.956;4.746;2022-12-13T08:13:52;-6.10;99.90
24049;DHT22;12250;50.956;4.746;2022-12-13T08:16:18;-6.10;99.90
24049;DHT22;12250;50.956;4.746;2022-12-13T08:18:44;-6.00;99.90
24049;DHT22;12250;50.956;4.746;2022-12-13T08:21:12;-5.90;99.90
24049;DHT22;12250;50.956;4.746;2022-12-13T08:23:38;-5.90;99.90
24049;DHT22;12250;50.956;4.746;2022-12-13T08:26:04;-5.80;99.90
24049;DHT22;12250;50.956;4.746;2022-12-13T08:28:31;-5.70;99.90
24049;DHT22;12250;50.956;4.746;2022-12-13T08:31:03;-5.70;99.90
24049;DHT22;12250;50.956;4.746;2022-12-13T08:33:30;-5.50;99.90
24049;DHT22;12250;50.956;4.746;2022-12-13T08:35:56;-5.40;99.90
24049;DHT22;12250;50.956;4.746;2022-12-13T08:38:21;-5.30;99.90
24049;DHT22;12250;50.956;4.746;2022-12-13T08:40:48;-5.20;99.90
24049;DHT22;12250;50.956;4.746;2022-12-13T08:43:13;-5.10;99.90
24049;DHT22;12250;50.956;4.746;2022-12-13T08:45:39;-5.00;99.90
24049;DHT22;12250;50.956;4.746;2022-12-13T08:48:05;-4.90;99.90
24049;DHT22;12250;50.956;4.746;2022-12-13T08:50:30;-4.80;99.90
24049;DHT22;12250;50.956;4.746;2022-12-13T08:52:56;-4.60;99.90
24049;DHT22;12250;50.956;4.746;2022-12-13T08:55:22;-4.50;99.90
24049;DHT22;12250;50.956;4.746;2022-12-13T08:57:48;-4.50;99.90
24049;DHT22;12250;50.956;4.746;2022-12-13T09:00:15;-4.30;99.90
24049;DHT22;12250;50.956;4.746;2022-12-13T09:02:41;-4.30;99.90
24049;DHT22;12250;50.956;4.746;2022-12-13T09:05:08;-4.10;99.90
24049;DHT22;12250;50.956;4.746;2022-12-13T09:07:35;-4.00;99.90
24049;DHT22;12250;50.956;4.746;2022-12-13T09:10:04;-3.90;99.90
24049;DHT22;12250;50.956;4.746;2022-12-13T09:12:29;-3.70;99.90
24049;DHT22;12250;50.956;4.746;2022-12-13T09:14:55;-3.50;99.90
24049;DHT22;12250;50.956;4.746;2022-12-13T09:17:21;-3.20;99.90
24049;DHT22;12250;50.956;4.746;2022-12-13T09:19:47;-2.90;99.90
24049;DHT22;12250;50.956;4.746;2022-12-13T09:22:13;-2.70;99.90
24049;DHT22;12250;50.956;4.746;2022-12-13T09:24:38;-2.50;99.90
24049;DHT22;12250;50.956;4.746;2022-12-13T09:27:04;-2.40;99.90
24049;DHT22;12250;50.956;4.746;2022-12-13T09:29:32;-2.30;99.90
24049;DHT22;12250;50.956;4.746;2022-12-13T09:31:58;-2.40;99.90
24049;DHT22;12250;50.956;4.746;2022-12-13T09:34:24;-2.40;99.90
24049;DHT22;12250;50.956;4.746;2022-12-13T09:36:50;-2.40;99.90
24049;DHT22;12250;50.956;4.746;2022-12-13T09:39:15;-2.40;99.90
24049;DHT22;12250;50.956;4.746;2022-12-13T09:41:50;-2.30;99.90
24049;DHT22;12250;50.956;4.746;2022-12-13T09:44:33;-2.10;99.90
24049;DHT22;12250;50.956;4.746;2022-12-13T09:47:10;-1.80;99.90
24049;DHT22;12250;50.956;4.746;2022-12-13T09:49:43;-1.50;99.90
24049;DHT22;12250;50.956;4.746;2022-12-13T09:52:14;-1.30;99.90
24049;DHT22;12250;50.956;4.746;2022-12-13T09:54:40;-1.10;99.90
24049;DHT22;12250;50.956;4.746;2022-12-13T09:57:20;-1.00;99.90
24049;DHT22;12250;50.956;4.746;2022-12-13T09:59:46;-1.00;99.90
24049;DHT22;12250;50.956;4.746;2022-12-13T10:02:16;-1.20;99.90
24049;DHT22;12250;50.956;4.746;2022-12-13T10:04:44;-1.20;99.90
24049;DHT22;12250;50.956;4.746;2022-12-13T10:07:21;-1.20;99.90
24049;DHT22;12250;50.956;4.746;2022-12-13T10:09:59;-1.20;99.90
24049;DHT22;12250;50.956;4.746;2022-12-13T10:12:28;-1.20;99.90
24049;DHT22;12250;50.956;4.746;2022-12-13T10:14:57;-1.20;99.90
24049;DHT22;12250;50.956;4.746;2022-12-13T10:17:27;-1.10;99.90
24049;DHT22;12250;50.956;4.746;2022-12-13T10:19:56;-1.00;99.90
24049;DHT22;12250;50.956;4.746;2022-12-13T10:22:22;-1.00;99.90
24049;DHT22;12250;50.956;4.746;2022-12-13T10:24:56;-1.10;99.90
24049;DHT22;12250;50.956;4.746;2022-12-13T10:30:10;-1.10;99.90
24049;DHT22;12250;50.956;4.746;2022-12-13T10:32:50;-0.90;99.90
24049;DHT22;12250;50.956;4.746;2022-12-13T10:35:30;-0.70;99.90
24049;DHT22;12250;50.956;4.746;2022-12-13T10:40:39;-0.40;99.90
24049;DHT22;12250;50.956;4.746;2022-12-13T10:43:20;-0.40;99.90
24049;DHT22;12250;50.956;4.746;2022-12-13T10:51:12;-0.30;99.90
24049;DHT22;12250;50.956;4.746;2022-12-13T10:53:44;-0.10;99.90
24049;DHT22;12250;50.956;4.746;2022-12-13T10:56:11;0.00;99.90
24049;DHT22;12250;50.956;4.746;2022-12-13T10:58:44;0.00;99.90
24049;DHT22;12250;50.956;4.746;2022-12-13T11:01:20;0.10;99.90
24049;DHT22;12250;50.956;4.746;2022-12-13T11:04:03;0.20;99.90
24049;DHT22;12250;50.956;4.746;2022-12-13T11:06:43;0.20;99.90
24049;DHT22;12250;50.956;4.746;2022-12-13T11:09:26;0.30;99.90
24049;DHT22;12250;50.956;4.746;2022-12-13T11:11:52;0.40;99.90
24049;DHT22;12250;50.956;4.746;2022-12-13T11:14:22;0.40;99.90
24049;DHT22;12250;50.956;4.746;2022-12-13T11:17:06;0.30;99.90
24049;DHT22;12250;50.956;4.746;2022-12-13T11:19:38;0.30;99.90
24049;DHT22;12250;50.956;4.746;2022-12-13T11:22:07;0.40;99.90
24049;DHT22;12250;50.956;4.746;2022-12-13T11:24:36;0.40;99.90
24049;DHT22;12250;50.956;4.746;2022-12-13T11:27:25;0.50;99.90
24049;DHT22;12250;50.956;4.746;2022-12-13T11:30:03;0.50;99.90
24049;DHT22;12250;50.956;4.746;2022-12-13T11:32:49;0.50;99.90
24049;DHT22;12250;50.956;4.746;2022-12-13T11:38:14;0.70;99.90
24049;DHT22;12250;50.956;4.746;2022-12-13T11:40:48;0.70;99.90
24049;DHT22;12250;50.956;4.746;2022-12-13T11:46:39;1.10;99.90
24049;DHT22;12250;50.956;4.746;2022-12-13T11:49:15;1.20;99.90
24049;DHT22;12250;50.956;4.746;2022-12-13T11:51:56;1.30;99.90
24049;DHT22;12250;50.956;4.746;2022-12-13T11:54:37;1.50;99.90
24049;DHT22;12250;50.956;4.746;2022-12-13T11:57:14;1.50;99.90
24049;DHT22;12250;50.956;4.746;2022-12-13T11:59:47;1.60;99.90
24049;DHT22;12250;50.956;4.746;2022-12-13T12:02:18;1.60;99.90
24049;DHT22;12250;50.956;4.746;2022-12-13T12:04:53;1.70;99.90
24049;DHT22;12250;50.956;4.746;2022-12-13T12:07:42;1.80;99.90
24049;DHT22;12250;50.956;4.746;2022-12-13T12:12:41;2.10;99.90
24049;DHT22;12250;50.956;4.746;2022-12-13T12:15:59;2.10;99.90
24049;DHT22;12250;50.956;4.746;2022-12-13T12:18:03;2.10;99.90
24049;DHT22;12250;50.956;4.746;2022-12-13T12:23:25;2.30;99.90
24049;DHT22;12250;50.956;4.746;2022-12-13T12:31:49;2.40;99.90
24049;DHT22;12250;50.956;4.746;2022-12-13T12:34:38;2.30;99.90
24049;DHT22;12250;50.956;4.746;2022-12-13T12:43:45;2.30;99.90
24049;DHT22;12250;50.956;4.746;2022-12-13T12:51:04;2.30;99.90
24049;DHT22;12250;50.956;4.746;2022-12-13T13:02:25;2.40;99.90
24049;DHT22;12250;50.956;4.746;2022-12-13T13:25:36;2.00;99.90
24049;DHT22;12250;50.956;4.746;2022-12-13T13:28:05;1.80;99.90
24049;DHT22;12250;50.956;4.746;2022-12-13T13:30:31;1.70;99.90
24049;DHT22;12250;50.956;4.746;2022-12-13T13:32:58;1.70;99.90
24049;DHT22;12250;50.956;4.746;2022-12-13T13:37:56;1.60;99.90
24049;DHT22;12250;50.956;4.746;2022-12-13T13:40:29;1.90;99.90
24049;DHT22;12250;50.956;4.746;2022-12-13T14:04:17;1.30;99.90
24049;DHT22;12250;50.956;4.746;2022-12-13T14:06:59;1.40;99.90
24049;DHT22;12250;50.956;4.746;2022-12-13T14:21:05;1.30;99.90
24049;DHT22;12250;50.956;4.746;2022-12-13T14:26:42;1.50;99.90
24049;DHT22;12250;50.956;4.746;2022-12-13T14:29:16;1.60;99.90
24049;DHT22;12250;50.956;4.746;2022-12-13T14:31:44;1.40;99.90
24049;DHT22;12250;50.956;4.746;2022-12-13T14:34:26;1.30;99.90
24049;DHT22;12250;50.956;4.746;2022-12-13T14:37:01;1.10;99.90
24049;DHT22;12250;50.956;4.746;2022-12-13T14:39:28;1.00;99.90
24049;DHT22;12250;50.956;4.746;2022-12-13T14:42:00;1.10;99.90
24049;DHT22;12250;50.956;4.746;2022-12-13T14:44:28;1.10;99.90
24049;DHT22;12250;50.956;4.746;2022-12-13T14:46:58;1.10;99.90
24049;DHT22;12250;50.956;4.746;2022-12-13T14:49:26;1.20;99.90
24049;DHT22;12250;50.956;4.746;2022-12-13T14:51:58;1.10;99.90
24049;DHT22;12250;50.956;4.746;2022-12-13T14:54:31;1.00;99.90
24049;DHT22;12250;50.956;4.746;2022-12-13T14:57:03;1.10;99.90
24049;DHT22;12250;50.956;4.746;2022-12-13T14:59:29;1.10;99.90
24049;DHT22;12250;50.956;4.746;2022-12-13T15:02:00;0.90;99.90
24049;DHT22;12250;50.956;4.746;2022-12-13T15:04:31;0.80;99.90
24049;DHT22;12250;50.956;4.746;2022-12-13T15:07:21;0.60;99.90
24049;DHT22;12250;50.956;4.746;2022-12-13T15:09:58;0.60;99.90
24049;DHT22;12250;50.956;4.746;2022-12-13T15:12:25;0.50;99.90
24049;DHT22;12250;50.956;4.746;2022-12-13T15:15:19;0.40;99.90
24049;DHT22;12250;50.956;4.746;2022-12-13T15:17:46;0.40;99.90
24049;DHT22;12250;50.956;4.746;2022-12-13T15:20:31;0.20;99.90
24049;DHT22;12250;50.956;4.746;2022-12-13T15:23:20;0.20;99.90
24049;DHT22;12250;50.956;4.746;2022-12-13T15:25:58;0.20;99.90
24049;DHT22;12250;50.956;4.746;2022-12-13T15:28:31;0.20;99.90
24049;DHT22;12250;50.956;4.746;2022-12-13T15:30:59;0.10;99.90
24049;DHT22;12250;50.956;4.746;2022-12-13T15:33:27;0.00;99.90
24049;DHT22;12250;50.956;4.746;2022-12-13T15:41:24;-0.10;99.90
24049;DHT22;12250;50.956;4.746;2022-12-13T15:43:54;-0.20;99.90
24049;DHT22;12250;50.956;4.746;2022-12-13T15:46:29;-0.20;99.90
24049;DHT22;12250;50.956;4.746;2022-12-13T15:48:57;-0.30;99.90
24049;DHT22;12250;50.956;4.746;2022-12-13T15:51:24;-0.30;99.90
24049;DHT22;12250;50.956;4.746;2022-12-13T15:54:06;-0.30;99.90
24049;DHT22;12250;50.956;4.746;2022-12-13T15:57:11;-0.40;99.90
24049;DHT22;12250;50.956;4.746;2022-12-13T15:59:41;-0.40;99.90
24049;DHT22;12250;50.956;4.746;2022-12-13T16:02:18;-0.40;99.90
24049;DHT22;12250;50.956;4.746;2022-12-13T16:04:45;-0.50;99.90
24049;DHT22;12250;50.956;4.746;2022-12-13T16:07:26;-0.50;99.90
24049;DHT22;12250;50.956;4.746;2022-12-13T16:09:53;-0.60;99.90
24049;DHT22;12250;50.956;4.746;2022-12-13T16:12:23;-0.60;99.90
24049;DHT22;12250;50.956;4.746;2022-12-13T16:14:49;-0.60;99.90
24049;DHT22;12250;50.956;4.746;2022-12-13T16:17:24;-0.60;99.90
24049;DHT22;12250;50.956;4.746;2022-12-13T16:19:54;-0.60;99.90
24049;DHT22;12250;50.956;4.746;2022-12-13T16:22:21;-0.70;99.90
24049;DHT22;12250;50.956;4.746;2022-12-13T16:24:49;-0.70;99.90
24049;DHT22;12250;50.956;4.746;2022-12-13T16:27:15;-0.60;99.90
24049;DHT22;12250;50.956;4.746;2022-12-13T16:29:40;-0.60;99.90
24049;DHT22;12250;50.956;4.746;2022-12-13T16:32:06;-0.60;99.90
24049;DHT22;12250;50.956;4.746;2022-12-13T16:34:32;-0.60;99.90
24049;DHT22;12250;50.956;4.746;2022-12-13T16:36:57;-0.60;99.90
24049;DHT22;12250;50.956;4.746;2022-12-13T16:39:26;-0.60;99.90
24049;DHT22;12250;50.956;4.746;2022-12-13T16:41:51;-0.60;99.90
24049;DHT22;12250;50.956;4.746;2022-12-13T16:44:21;-0.50;99.90
24049;DHT22;12250;50.956;4.746;2022-12-13T16:46:48;-0.60;99.90
24049;DHT22;12250;50.956;4.746;2022-12-13T16:49:32;-0.60;99.90
24049;DHT22;12250;50.956;4.746;2022-12-13T16:51:58;-0.60;99.90
24049;DHT22;12250;50.956;4.746;2022-12-13T16:54:24;-0.60;99.90
24049;DHT22;12250;50.956;4.746;2022-12-13T16:56:51;-0.50;99.90
24049;DHT22;12250;50.956;4.746;2022-12-13T16:59:19;-0.50;99.90
24049;DHT22;12250;50.956;4.746;2022-12-13T17:01:47;-0.50;99.90
24049;DHT22;12250;50.956;4.746;2022-12-13T17:04:15;-0.50;99.90
24049;DHT22;12250;50.956;4.746;2022-12-13T17:06:42;-0.40;99.90
24049;DHT22;12250;50.956;4.746;2022-12-13T17:09:08;-0.50;99.90
24049;DHT22;12250;50.956;4.746;2022-12-13T17:11:35;-0.40;99.90
24049;DHT22;12250;50.956;4.746;2022-12-13T17:14:02;-0.40;99.90
24049;DHT22;12250;50.956;4.746;2022-12-13T17:16:28;-0.50;99.90
24049;DHT22;12250;50.956;4.746;2022-12-13T17:18:54;-0.40;99.90
24049;DHT22;12250;50.956;4.746;2022-12-13T17:21:21;-0.50;99.90
24049;DHT22;12250;50.956;4.746;2022-12-13T17:23:52;-0.50;99.90
24049;DHT22;12250;50.956;4.746;2022-12-13T17:26:18;-0.50;99.90
24049;DHT22;12250;50.956;4.746;2022-12-13T17:28:43;-0.50;99.90
24049;DHT22;12250;50.956;4.746;2022-12-13T17:31:11;-0.40;99.90
24049;DHT22;12250;50.956;4.746;2022-12-13T17:33:41;-0.40;99.90
24049;DHT22;12250;50.956;4.746;2022-12-13T17:36:08;-0.50;99.90
24049;DHT22;12250;50.956;4.746;2022-12-13T17:38:35;-0.50;99.90
24049;DHT22;12250;50.956;4.746;2022-12-13T17:41:01;-0.50;99.90
24049;DHT22;12250;50.956;4.746;2022-12-13T17:43:27;-0.50;99.90
24049;DHT22;12250;50.956;4.746;2022-12-13T17:46:13;-0.50;99.90
24049;DHT22;12250;50.956;4.746;2022-12-13T17:48:39;-0.40;99.90
24049;DHT22;12250;50.956;4.746;2022-12-13T17:51:05;-0.40;99.90
24049;DHT22;12250;50.956;4.746;2022-12-13T17:53:32;-0.40;99.90
24049;DHT22;12250;50.956;4.746;2022-12-13T17:56:00;-0.50;99.90
24049;DHT22;12250;50.956;4.746;2022-12-13T17:58:27;-0.50;99.90
24049;DHT22;12250;50.956;4.746;2022-12-13T18:00:53;-0.50;99.90
24049;DHT22;12250;50.956;4.746;2022-12-13T18:03:19;-0.50;99.90
24049;DHT22;12250;50.956;4.746;2022-12-13T18:05:55;-0.50;99.90